createdAt,value
2018-07-29T00:00:51.025Z,0.00
2018-07-29T00:01:50.849Z,0.00
2018-07-29T00:02:50.937Z,0.00
2018-07-29T00:03:50.808Z,0.00
2018-07-29T00:04:50.951Z,0.00
2018-07-29T00:05:50.768Z,0.00
2018-07-29T00:06:50.862Z,0.00
2018-07-29T00:07:50.730Z,0.00
2018-07-29T00:08:50.877Z,0.00
2018-07-29T00:09:50.688Z,0.00
2018-07-29T00:10:50.790Z,0.00
2018-07-29T00:11:50.648Z,0.00
2018-07-29T00:12:50.715Z,0.00
2018-07-29T00:13:50.609Z,0.00
2018-07-29T00:14:50.715Z,0.00
2018-07-29T00:15:50.569Z,0.00
2018-07-29T00:16:50.627Z,0.00
2018-07-29T00:17:50.528Z,0.00
2018-07-29T00:18:50.645Z,0.00
2018-07-29T00:19:50.486Z,0.00
2018-07-29T00:20:50.553Z,0.00
2018-07-29T00:21:50.449Z,0.00
2018-07-29T00:22:50.568Z,0.00
2018-07-29T00:23:50.407Z,0.00
2018-07-29T00:24:50.478Z,0.00
2018-07-29T00:25:50.366Z,0.00
2018-07-29T00:26:50.493Z,0.00
2018-07-29T00:27:50.330Z,0.00
2018-07-29T00:28:50.409Z,0.00
2018-07-29T00:29:50.285Z,0.00
2018-07-29T00:30:50.422Z,0.00
2018-07-29T00:31:50.247Z,0.00
2018-07-29T00:32:50.333Z,0.00
2018-07-29T00:33:50.207Z,0.00
2018-07-29T00:34:50.350Z,0.00
2018-07-29T00:35:50.165Z,0.00
2018-07-29T00:36:50.257Z,0.00
2018-07-29T00:37:50.124Z,0.00
2018-07-29T00:38:50.274Z,0.00
2018-07-29T00:39:50.097Z,0.00
2018-07-29T00:40:50.185Z,0.00
2018-07-29T00:41:50.043Z,0.00
2018-07-29T00:42:50.201Z,0.00
2018-07-29T00:43:50.003Z,0.00
2018-07-29T00:44:50.116Z,0.00
2018-07-29T00:45:49.966Z,0.00
2018-07-29T00:46:50.123Z,0.00
2018-07-29T00:47:49.923Z,0.00
2018-07-29T00:48:50.045Z,0.00
2018-07-29T00:49:49.881Z,0.00
2018-07-29T00:50:50.053Z,0.00
2018-07-29T00:51:49.840Z,0.00
2018-07-29T00:52:49.965Z,0.00
2018-07-29T00:53:49.800Z,0.00
2018-07-29T00:54:49.976Z,0.00
2018-07-29T00:55:49.762Z,0.00
2018-07-29T00:56:49.890Z,0.00
2018-07-29T00:57:49.721Z,0.00
2018-07-29T00:58:49.903Z,0.00
2018-07-29T00:59:49.679Z,0.00
2018-07-29T01:00:49.813Z,0.00
2018-07-29T01:01:49.637Z,0.00
2018-07-29T01:02:49.828Z,0.00
2018-07-29T01:03:49.598Z,0.00
2018-07-29T01:04:49.741Z,0.00
2018-07-29T01:05:49.556Z,0.00
2018-07-29T01:06:49.653Z,0.00
2018-07-29T01:07:49.519Z,0.00
2018-07-29T01:08:49.567Z,0.00
2018-07-29T01:09:49.475Z,0.00
2018-07-29T01:10:49.579Z,0.00
2018-07-29T01:11:49.435Z,0.00
2018-07-29T01:12:49.491Z,0.00
2018-07-29T01:13:49.394Z,0.00
2018-07-29T01:14:49.402Z,0.00
2018-07-29T01:15:49.354Z,0.00
2018-07-29T01:16:49.415Z,0.00
2018-07-29T01:17:49.314Z,0.00
2018-07-29T01:18:49.327Z,0.00
2018-07-29T01:19:49.322Z,0.00
2018-07-29T01:20:49.341Z,0.00
2018-07-29T01:21:49.231Z,0.00
2018-07-29T01:22:49.254Z,0.00
2018-07-29T01:23:49.190Z,0.00
2018-07-29T01:24:49.275Z,0.00
2018-07-29T01:25:49.151Z,0.00
2018-07-29T01:26:49.180Z,0.00
2018-07-29T01:27:49.110Z,0.00
2018-07-29T01:28:49.195Z,0.00
2018-07-29T01:29:49.068Z,0.00
2018-07-29T01:30:49.106Z,0.00
2018-07-29T01:31:49.028Z,0.00
2018-07-29T01:32:49.120Z,0.00
2018-07-29T01:33:48.986Z,0.00
2018-07-29T01:34:49.036Z,0.00
2018-07-29T01:35:48.946Z,0.00
2018-07-29T01:36:49.046Z,0.00
2018-07-29T01:37:48.903Z,0.00
2018-07-29T01:38:48.958Z,0.00
2018-07-29T01:39:48.864Z,0.00
2018-07-29T01:40:48.972Z,0.00
2018-07-29T01:41:48.823Z,0.00
2018-07-29T01:42:48.885Z,0.00
2018-07-29T01:43:48.781Z,0.00
2018-07-29T01:44:48.899Z,0.00
2018-07-29T01:45:48.740Z,0.00
2018-07-29T01:46:48.814Z,0.00
2018-07-29T01:47:48.701Z,0.00
2018-07-29T01:48:48.824Z,0.00
2018-07-29T01:49:48.657Z,0.00
2018-07-29T01:50:48.736Z,0.00
2018-07-29T01:51:48.619Z,0.00
2018-07-29T01:52:48.750Z,0.00
2018-07-29T01:53:48.576Z,0.00
2018-07-29T01:54:48.662Z,0.00
2018-07-29T01:55:48.534Z,0.00
2018-07-29T01:56:48.677Z,0.00
2018-07-29T01:57:48.504Z,0.00
2018-07-29T01:58:48.588Z,0.00
2018-07-29T01:59:48.456Z,0.00
2018-07-29T02:00:48.603Z,0.00
2018-07-29T02:01:48.413Z,0.00
2018-07-29T02:02:48.524Z,0.00
2018-07-29T02:03:48.373Z,0.00
2018-07-29T02:04:48.426Z,0.00
2018-07-29T02:05:48.330Z,0.00
2018-07-29T02:06:48.441Z,0.00
2018-07-29T02:07:48.289Z,0.00
2018-07-29T02:08:48.354Z,0.00
2018-07-29T02:09:48.274Z,0.00
2018-07-29T02:10:48.367Z,0.00
2018-07-29T02:11:48.215Z,0.00
2018-07-29T02:12:48.278Z,0.00
2018-07-29T02:13:48.169Z,0.00
2018-07-29T02:14:48.293Z,0.00
2018-07-29T02:15:48.126Z,0.00
2018-07-29T02:16:48.206Z,0.00
2018-07-29T02:17:48.087Z,0.00
2018-07-29T02:18:48.219Z,0.00
2018-07-29T02:19:48.046Z,0.00
2018-07-29T02:20:48.131Z,0.00
2018-07-29T02:21:48.003Z,0.00
2018-07-29T02:22:48.146Z,0.00
2018-07-29T02:23:47.963Z,0.00
2018-07-29T02:24:48.058Z,0.00
2018-07-29T02:25:47.923Z,0.00
2018-07-29T02:26:48.071Z,0.00
2018-07-29T02:27:47.882Z,0.00
2018-07-29T02:28:47.866Z,0.00
2018-07-29T02:29:47.989Z,0.00
2018-07-29T02:30:47.817Z,0.00
2018-07-29T02:31:47.905Z,0.00
2018-07-29T02:32:47.779Z,0.00
2018-07-29T02:33:47.758Z,0.00
2018-07-29T02:34:47.736Z,0.00
2018-07-29T02:35:47.830Z,0.00
2018-07-29T02:36:47.698Z,0.00
2018-07-29T02:37:47.842Z,0.00
2018-07-29T02:38:47.658Z,0.00
2018-07-29T02:39:47.755Z,0.00
2018-07-29T02:40:47.632Z,0.00
2018-07-29T02:41:47.771Z,0.00
2018-07-29T02:42:47.572Z,0.00
2018-07-29T02:43:47.694Z,0.00
2018-07-29T02:44:47.533Z,0.00
2018-07-29T02:45:47.694Z,0.00
2018-07-29T02:46:47.491Z,0.00
2018-07-29T02:47:47.670Z,0.00
2018-07-29T02:48:47.452Z,0.00
2018-07-29T02:49:47.621Z,0.00
2018-07-29T02:50:47.410Z,0.00
2018-07-29T02:51:47.538Z,0.00
2018-07-29T02:52:47.371Z,0.00
2018-07-29T02:53:47.548Z,0.00
2018-07-29T02:54:47.329Z,0.00
2018-07-29T02:55:47.362Z,0.00
2018-07-29T02:56:47.287Z,0.00
2018-07-29T02:57:47.372Z,0.00
2018-07-29T02:58:47.247Z,0.00
2018-07-29T02:59:47.284Z,0.00
2018-07-29T03:00:47.208Z,0.00
2018-07-29T03:01:47.297Z,0.00
2018-07-29T03:02:47.165Z,0.00
2018-07-29T03:03:47.210Z,0.00
2018-07-29T03:04:47.123Z,0.00
2018-07-29T03:05:47.220Z,0.00
2018-07-29T03:06:47.081Z,0.00
2018-07-29T03:07:47.135Z,0.00
2018-07-29T03:08:47.045Z,0.00
2018-07-29T03:09:47.149Z,0.00
2018-07-29T03:10:46.998Z,0.00
2018-07-29T03:11:47.061Z,0.00
2018-07-29T03:12:46.960Z,0.00
2018-07-29T03:13:46.973Z,0.00
2018-07-29T03:14:46.918Z,0.00
2018-07-29T03:15:46.995Z,0.00
2018-07-29T03:16:46.877Z,0.00
2018-07-29T03:17:46.958Z,0.00
2018-07-29T03:18:46.831Z,0.00
2018-07-29T03:19:46.913Z,0.00
2018-07-29T03:20:46.794Z,0.00
2018-07-29T03:21:46.830Z,0.00
2018-07-29T03:22:46.752Z,0.00
2018-07-29T03:23:46.840Z,0.00
2018-07-29T03:24:46.712Z,0.00
2018-07-29T03:25:46.751Z,0.00
2018-07-29T03:26:46.668Z,0.00
2018-07-29T03:27:46.765Z,0.00
2018-07-29T03:28:46.629Z,0.00
2018-07-29T03:29:46.681Z,0.00
2018-07-29T03:30:46.586Z,0.00
2018-07-29T03:31:46.695Z,0.00
2018-07-29T03:32:46.547Z,0.00
2018-07-29T03:33:46.605Z,0.00
2018-07-29T03:34:46.597Z,0.00
2018-07-29T03:35:46.620Z,0.00
2018-07-29T03:36:46.464Z,0.00
2018-07-29T03:37:46.531Z,0.00
2018-07-29T03:38:46.423Z,0.00
2018-07-29T03:39:46.544Z,0.00
2018-07-29T03:40:46.380Z,0.00
2018-07-29T03:41:46.455Z,0.00
2018-07-29T03:42:46.345Z,0.00
2018-07-29T03:43:46.472Z,0.00
2018-07-29T03:44:46.298Z,0.00
2018-07-29T03:45:46.382Z,0.00
2018-07-29T03:46:46.256Z,0.00
2018-07-29T03:47:46.396Z,0.00
2018-07-29T03:48:46.214Z,0.00
2018-07-29T03:49:46.299Z,0.00
2018-07-29T03:50:46.175Z,0.00
2018-07-29T03:51:46.322Z,0.00
2018-07-29T03:52:46.137Z,0.00
2018-07-29T03:53:46.237Z,0.00
2018-07-29T03:54:46.132Z,0.00
2018-07-29T03:55:46.145Z,0.00
2018-07-29T03:56:46.052Z,0.00
2018-07-29T03:57:46.163Z,0.00
2018-07-29T03:58:46.009Z,0.00
2018-07-29T03:59:46.071Z,0.00
2018-07-29T04:00:45.969Z,0.00
2018-07-29T04:01:46.088Z,0.00
2018-07-29T04:02:45.928Z,0.00
2018-07-29T04:03:46.001Z,0.00
2018-07-29T04:04:45.885Z,0.00
2018-07-29T04:05:46.012Z,0.00
2018-07-29T04:06:45.845Z,0.00
2018-07-29T04:07:45.924Z,5.63
2018-07-29T04:08:45.808Z,5.63
2018-07-29T04:09:45.940Z,5.63
2018-07-29T04:10:45.759Z,5.63
2018-07-29T04:11:45.850Z,5.63
2018-07-29T04:12:45.729Z,5.63
2018-07-29T04:13:45.863Z,5.63
2018-07-29T04:14:45.681Z,5.63
2018-07-29T04:15:45.776Z,5.63
2018-07-29T04:16:45.640Z,5.63
2018-07-29T04:17:45.792Z,5.63
2018-07-29T04:18:45.597Z,5.63
2018-07-29T04:19:45.702Z,11.25
2018-07-29T04:20:45.557Z,11.25
2018-07-29T04:21:45.719Z,11.25
2018-07-29T04:22:45.514Z,11.25
2018-07-29T04:23:45.629Z,11.25
2018-07-29T04:24:45.475Z,11.25
2018-07-29T04:25:45.644Z,16.88
2018-07-29T04:26:45.432Z,16.88
2018-07-29T04:27:45.555Z,16.88
2018-07-29T04:28:45.394Z,16.88
2018-07-29T04:29:45.574Z,16.88
2018-07-29T04:30:45.352Z,16.88
2018-07-29T04:31:45.482Z,16.88
2018-07-29T04:32:45.311Z,16.88
2018-07-29T04:33:45.496Z,22.50
2018-07-29T04:34:45.271Z,22.50
2018-07-29T04:35:45.407Z,22.50
2018-07-29T04:36:45.228Z,22.50
2018-07-29T04:37:45.423Z,22.50
2018-07-29T04:38:45.185Z,22.50
2018-07-29T04:39:45.334Z,22.50
2018-07-29T04:40:45.146Z,22.50
2018-07-29T04:41:45.244Z,22.50
2018-07-29T04:42:45.106Z,22.50
2018-07-29T04:43:45.260Z,22.50
2018-07-29T04:44:45.063Z,22.50
2018-07-29T04:45:45.070Z,22.50
2018-07-29T04:46:45.021Z,22.50
2018-07-29T04:47:45.083Z,22.50
2018-07-29T04:48:44.979Z,22.50
2018-07-29T04:49:44.994Z,22.50
2018-07-29T04:50:44.940Z,22.50
2018-07-29T04:51:45.008Z,22.50
2018-07-29T04:52:44.900Z,28.13
2018-07-29T04:53:44.922Z,28.13
2018-07-29T04:54:44.856Z,28.13
2018-07-29T04:55:44.934Z,28.13
2018-07-29T04:56:44.817Z,28.13
2018-07-29T04:57:44.850Z,28.13
2018-07-29T04:58:44.806Z,28.13
2018-07-29T04:59:44.874Z,33.75
2018-07-29T05:00:44.735Z,33.75
2018-07-29T05:01:44.774Z,33.75
2018-07-29T05:02:44.693Z,33.75
2018-07-29T05:03:44.788Z,33.75
2018-07-29T05:04:44.654Z,33.75
2018-07-29T05:05:44.703Z,33.75
2018-07-29T05:06:44.651Z,28.13
2018-07-29T05:07:44.718Z,28.13
2018-07-29T05:08:44.571Z,28.13
2018-07-29T05:09:44.627Z,28.13
2018-07-29T05:10:44.524Z,28.13
2018-07-29T05:11:44.641Z,28.13
2018-07-29T05:12:44.493Z,28.13
2018-07-29T05:13:44.554Z,28.13
2018-07-29T05:14:44.453Z,28.13
2018-07-29T05:15:44.569Z,28.13
2018-07-29T05:16:44.413Z,28.13
2018-07-29T05:17:44.481Z,28.13
2018-07-29T05:18:44.393Z,28.13
2018-07-29T05:19:44.495Z,28.13
2018-07-29T05:20:44.337Z,28.13
2018-07-29T05:21:44.405Z,28.13
2018-07-29T05:22:44.290Z,28.13
2018-07-29T05:23:44.420Z,28.13
2018-07-29T05:24:44.276Z,28.13
2018-07-29T05:25:44.334Z,33.75
2018-07-29T05:26:44.212Z,33.75
2018-07-29T05:27:44.344Z,33.75
2018-07-29T05:28:44.172Z,33.75
2018-07-29T05:29:44.252Z,33.75
2018-07-29T05:30:44.130Z,33.75
2018-07-29T05:31:44.272Z,39.38
2018-07-29T05:32:44.093Z,39.38
2018-07-29T05:33:44.183Z,45.00
2018-07-29T05:34:44.051Z,45.00
2018-07-29T05:35:44.200Z,45.00
2018-07-29T05:36:44.017Z,50.63
2018-07-29T05:37:44.110Z,50.63
2018-07-29T05:38:44.052Z,56.25
2018-07-29T05:39:44.123Z,56.25
2018-07-29T05:40:43.930Z,56.25
2018-07-29T05:41:44.036Z,61.88
2018-07-29T05:42:43.892Z,61.88
2018-07-29T05:43:43.949Z,61.88
2018-07-29T05:44:43.856Z,61.88
2018-07-29T05:45:43.965Z,61.88
2018-07-29T05:46:43.815Z,61.88
2018-07-29T05:47:43.873Z,61.88
2018-07-29T05:48:43.777Z,61.88
2018-07-29T05:49:44.915Z,61.88
2018-07-29T05:50:43.737Z,61.88
2018-07-29T05:51:43.802Z,61.88
2018-07-29T05:52:43.699Z,61.88
2018-07-29T05:53:43.811Z,61.88
2018-07-29T05:54:43.664Z,61.88
2018-07-29T05:55:43.746Z,61.88
2018-07-29T05:56:43.619Z,61.88
2018-07-29T05:57:43.741Z,61.88
2018-07-29T05:58:43.584Z,61.88
2018-07-29T05:59:43.652Z,67.50
2018-07-29T06:00:43.539Z,67.50
2018-07-29T06:01:43.668Z,73.13
2018-07-29T06:02:43.500Z,73.13
2018-07-29T06:03:43.577Z,73.13
2018-07-29T06:04:43.464Z,73.13
2018-07-29T06:05:43.594Z,73.13
2018-07-29T06:06:43.424Z,78.75
2018-07-29T06:07:43.506Z,78.75
2018-07-29T06:08:43.386Z,78.75
2018-07-29T06:09:43.517Z,84.38
2018-07-29T06:10:43.351Z,84.38
2018-07-29T06:11:43.438Z,78.75
2018-07-29T06:12:43.318Z,84.38
2018-07-29T06:13:43.443Z,84.38
2018-07-29T06:14:43.273Z,84.38
2018-07-29T06:15:43.355Z,84.38
2018-07-29T06:16:43.232Z,84.38
2018-07-29T06:17:43.370Z,84.38
2018-07-29T06:18:43.195Z,84.38
2018-07-29T06:19:43.281Z,90.00
2018-07-29T06:20:43.157Z,90.00
2018-07-29T06:21:43.299Z,95.63
2018-07-29T06:22:43.111Z,95.63
2018-07-29T06:23:43.206Z,95.63
2018-07-29T06:24:43.082Z,101.25
2018-07-29T06:25:43.246Z,101.25
2018-07-29T06:26:43.040Z,101.25
2018-07-29T06:27:43.235Z,101.25
2018-07-29T06:28:43.008Z,101.25
2018-07-29T06:29:43.148Z,101.25
2018-07-29T06:30:42.964Z,95.63
2018-07-29T06:31:43.163Z,101.25
2018-07-29T06:32:42.928Z,101.25
2018-07-29T06:33:43.074Z,101.25
2018-07-29T06:34:42.887Z,101.25
2018-07-29T06:35:42.985Z,95.63
2018-07-29T06:36:42.852Z,101.25
2018-07-29T06:37:42.904Z,95.63
2018-07-29T06:38:42.814Z,95.63
2018-07-29T06:39:42.911Z,95.63
2018-07-29T06:40:42.811Z,95.63
2018-07-29T06:41:42.826Z,95.63
2018-07-29T06:42:42.741Z,101.25
2018-07-29T06:43:42.842Z,101.25
2018-07-29T06:44:42.728Z,101.25
2018-07-29T06:45:42.748Z,106.88
2018-07-29T06:46:42.663Z,106.88
2018-07-29T06:47:42.765Z,112.50
2018-07-29T06:48:42.627Z,106.88
2018-07-29T06:49:42.676Z,112.50
2018-07-29T06:50:42.637Z,112.50
2018-07-29T06:51:42.690Z,112.50
2018-07-29T06:52:42.553Z,112.50
2018-07-29T06:53:42.603Z,112.50
2018-07-29T06:54:42.514Z,112.50
2018-07-29T06:55:42.616Z,118.13
2018-07-29T06:56:42.480Z,118.13
2018-07-29T06:57:42.531Z,118.13
2018-07-29T06:58:42.441Z,118.13
2018-07-29T06:59:42.543Z,123.75
2018-07-29T07:00:42.407Z,123.75
2018-07-29T07:01:42.454Z,129.38
2018-07-29T07:02:42.369Z,135.00
2018-07-29T07:03:42.472Z,135.00
2018-07-29T07:04:42.332Z,140.63
2018-07-29T07:05:42.384Z,140.63
2018-07-29T07:06:42.295Z,135.00
2018-07-29T07:07:42.396Z,135.00
2018-07-29T07:08:42.264Z,135.00
2018-07-29T07:09:42.308Z,129.38
2018-07-29T07:10:42.230Z,129.38
2018-07-29T07:11:42.318Z,129.38
2018-07-29T07:12:42.187Z,135.00
2018-07-29T07:13:42.232Z,135.00
2018-07-29T07:14:42.154Z,129.38
2018-07-29T07:15:42.249Z,129.38
2018-07-29T07:16:42.114Z,135.00
2018-07-29T07:17:42.158Z,135.00
2018-07-29T07:18:42.079Z,135.00
2018-07-29T07:19:42.173Z,140.63
2018-07-29T07:20:42.046Z,140.63
2018-07-29T07:21:42.087Z,146.25
2018-07-29T07:22:42.008Z,146.25
2018-07-29T07:23:42.101Z,140.63
2018-07-29T07:24:41.973Z,140.63
2018-07-29T07:25:42.113Z,135.00
2018-07-29T07:26:41.939Z,135.00
2018-07-29T07:27:42.026Z,135.00
2018-07-29T07:28:41.902Z,129.38
2018-07-29T07:29:42.061Z,123.75
2018-07-29T07:30:41.866Z,118.13
2018-07-29T07:31:41.952Z,118.13
2018-07-29T07:32:41.858Z,112.50
2018-07-29T07:33:41.965Z,118.13
2018-07-29T07:34:41.839Z,118.13
2018-07-29T07:35:41.877Z,129.38
2018-07-29T07:36:41.761Z,135.00
2018-07-29T07:37:41.892Z,140.63
2018-07-29T07:38:41.724Z,146.25
2018-07-29T07:39:41.803Z,140.63
2018-07-29T07:40:41.699Z,146.25
2018-07-29T07:41:41.818Z,151.88
2018-07-29T07:42:41.657Z,151.88
2018-07-29T07:43:41.732Z,151.88
2018-07-29T07:44:41.617Z,146.25
2018-07-29T07:45:41.744Z,146.25
2018-07-29T07:46:41.584Z,140.63
2018-07-29T07:47:41.658Z,146.25
2018-07-29T07:48:41.547Z,146.25
2018-07-29T07:49:41.669Z,157.50
2018-07-29T07:50:41.513Z,157.50
2018-07-29T07:51:41.686Z,157.50
2018-07-29T07:52:41.477Z,163.13
2018-07-29T07:53:41.596Z,168.75
2018-07-29T07:54:41.442Z,168.75
2018-07-29T07:55:41.611Z,163.13
2018-07-29T07:56:41.399Z,163.13
2018-07-29T07:57:41.521Z,168.75
2018-07-29T07:58:41.372Z,174.38
2018-07-29T07:59:41.536Z,174.38
2018-07-29T08:00:41.337Z,185.63
2018-07-29T08:01:41.376Z,185.63
2018-07-29T08:02:41.304Z,191.25
2018-07-29T08:03:41.359Z,191.25
2018-07-29T08:04:41.267Z,191.25
2018-07-29T08:05:41.272Z,191.25
2018-07-29T08:06:41.233Z,185.63
2018-07-29T08:07:41.214Z,191.25
2018-07-29T08:08:41.294Z,191.25
2018-07-29T08:09:41.207Z,191.25
2018-07-29T08:10:41.203Z,191.25
2018-07-29T08:11:41.145Z,185.63
2018-07-29T08:12:41.223Z,191.25
2018-07-29T08:13:41.116Z,191.25
2018-07-29T08:14:41.130Z,185.63
2018-07-29T08:15:41.075Z,185.63
2018-07-29T08:16:41.147Z,185.63
2018-07-29T08:17:41.041Z,185.63
2018-07-29T08:18:41.056Z,180.00
2018-07-29T08:19:41.009Z,180.00
2018-07-29T08:20:41.072Z,174.38
2018-07-29T08:21:40.976Z,174.38
2018-07-29T08:22:40.982Z,174.38
2018-07-29T08:23:40.940Z,174.38
2018-07-29T08:24:40.996Z,174.38
2018-07-29T08:25:40.902Z,174.38
2018-07-29T08:26:40.915Z,168.75
2018-07-29T08:27:40.870Z,168.75
2018-07-29T08:28:40.923Z,174.38
2018-07-29T08:29:40.836Z,180.00
2018-07-29T08:30:40.840Z,180.00
2018-07-29T08:31:40.800Z,180.00
2018-07-29T08:32:40.855Z,180.00
2018-07-29T08:33:40.785Z,180.00
2018-07-29T08:34:40.865Z,185.63
2018-07-29T08:35:40.733Z,196.88
2018-07-29T08:36:40.777Z,208.13
2018-07-29T08:37:40.699Z,213.75
2018-07-29T08:38:40.792Z,219.38
2018-07-29T08:39:40.665Z,225.00
2018-07-29T08:40:40.703Z,225.00
2018-07-29T08:41:40.635Z,230.63
2018-07-29T08:42:40.718Z,225.00
2018-07-29T08:43:40.599Z,225.00
2018-07-29T08:44:40.630Z,225.00
2018-07-29T08:45:40.567Z,230.63
2018-07-29T08:46:40.645Z,230.63
2018-07-29T08:47:40.529Z,230.63
2018-07-29T08:48:40.555Z,230.63
2018-07-29T08:49:40.501Z,241.88
2018-07-29T08:50:40.481Z,241.88
2018-07-29T08:51:40.466Z,241.88
2018-07-29T08:52:40.480Z,241.88
2018-07-29T08:53:40.431Z,247.50
2018-07-29T08:54:40.497Z,247.50
2018-07-29T08:55:40.401Z,258.75
2018-07-29T08:56:40.406Z,264.38
2018-07-29T08:57:40.366Z,270.00
2018-07-29T08:58:40.421Z,270.00
2018-07-29T08:59:40.332Z,270.00
2018-07-29T09:00:40.440Z,270.00
2018-07-29T09:01:40.304Z,275.63
2018-07-29T09:02:40.371Z,253.13
2018-07-29T09:03:40.267Z,241.88
2018-07-29T09:04:42.329Z,236.25
2018-07-29T09:05:40.234Z,219.38
2018-07-29T09:06:40.273Z,219.38
2018-07-29T09:07:40.204Z,213.75
2018-07-29T09:08:40.288Z,213.75
2018-07-29T09:09:40.188Z,208.13
2018-07-29T09:10:40.204Z,208.13
2018-07-29T09:11:40.139Z,208.13
2018-07-29T09:12:40.212Z,213.75
2018-07-29T09:13:40.108Z,225.00
2018-07-29T09:14:40.130Z,225.00
2018-07-29T09:15:40.084Z,230.63
2018-07-29T09:16:40.153Z,236.25
2018-07-29T09:17:40.045Z,241.88
2018-07-29T09:18:40.053Z,236.25
2018-07-29T09:19:40.011Z,258.75
2018-07-29T09:20:40.060Z,264.38
2018-07-29T09:21:40.020Z,270.00
2018-07-29T09:22:39.977Z,270.00
2018-07-29T09:23:39.949Z,270.00
2018-07-29T09:24:39.996Z,258.75
2018-07-29T09:25:39.924Z,230.63
2018-07-29T09:26:40.008Z,213.75
2018-07-29T09:27:39.884Z,202.50
2018-07-29T09:28:39.920Z,202.50
2018-07-29T09:29:39.855Z,208.13
2018-07-29T09:30:40.014Z,219.38
2018-07-29T09:31:39.822Z,225.00
2018-07-29T09:32:39.847Z,236.25
2018-07-29T09:33:39.797Z,236.25
2018-07-29T09:34:39.863Z,236.25
2018-07-29T09:35:39.766Z,236.25
2018-07-29T09:36:39.771Z,236.25
2018-07-29T09:37:39.729Z,241.88
2018-07-29T09:38:39.784Z,247.50
2018-07-29T09:39:39.704Z,253.13
2018-07-29T09:40:39.799Z,258.75
2018-07-29T09:41:39.668Z,264.38
2018-07-29T09:42:39.712Z,270.00
2018-07-29T09:43:39.641Z,270.00
2018-07-29T09:44:39.725Z,270.00
2018-07-29T09:45:39.624Z,270.00
2018-07-29T09:46:39.633Z,253.13
2018-07-29T09:47:39.579Z,258.75
2018-07-29T09:48:39.651Z,258.75
2018-07-29T09:49:39.551Z,258.75
2018-07-29T09:50:39.566Z,258.75
2018-07-29T09:51:39.531Z,264.38
2018-07-29T09:52:39.578Z,270.00
2018-07-29T09:53:39.488Z,281.25
2018-07-29T09:54:39.500Z,292.50
2018-07-29T09:55:39.458Z,286.88
2018-07-29T09:56:39.504Z,298.13
2018-07-29T09:57:39.427Z,281.25
2018-07-29T09:58:39.523Z,275.63
2018-07-29T09:59:39.409Z,275.63
2018-07-29T10:00:39.429Z,281.25
2018-07-29T10:01:39.370Z,286.88
2018-07-29T10:02:39.444Z,298.13
2018-07-29T10:03:39.350Z,303.75
2018-07-29T10:04:39.355Z,292.50
2018-07-29T10:05:39.310Z,286.88
2018-07-29T10:06:39.373Z,275.63
2018-07-29T10:07:39.281Z,264.38
2018-07-29T10:08:39.281Z,253.13
2018-07-29T10:09:39.248Z,230.63
2018-07-29T10:10:39.299Z,225.00
2018-07-29T10:11:39.221Z,225.00
2018-07-29T10:12:39.312Z,230.63
2018-07-29T10:13:39.196Z,236.25
2018-07-29T10:14:39.223Z,241.88
2018-07-29T10:15:39.186Z,230.63
2018-07-29T10:16:39.237Z,219.38
2018-07-29T10:17:39.134Z,230.63
2018-07-29T10:18:39.148Z,225.00
2018-07-29T10:19:39.118Z,230.63
2018-07-29T10:20:39.165Z,236.25
2018-07-29T10:21:39.075Z,236.25
2018-07-29T10:22:39.075Z,247.50
2018-07-29T10:23:39.045Z,247.50
2018-07-29T10:24:39.091Z,264.38
2018-07-29T10:25:39.022Z,264.38
2018-07-29T10:26:39.106Z,281.25
2018-07-29T10:27:38.989Z,281.25
2018-07-29T10:28:39.015Z,281.25
2018-07-29T10:29:38.961Z,270.00
2018-07-29T10:30:39.029Z,264.38
2018-07-29T10:31:38.935Z,270.00
2018-07-29T10:32:38.949Z,270.00
2018-07-29T10:33:38.913Z,270.00
2018-07-29T10:34:38.956Z,270.00
2018-07-29T10:35:38.876Z,281.25
2018-07-29T10:36:38.965Z,292.50
2018-07-29T10:37:38.847Z,315.00
2018-07-29T10:38:38.895Z,298.13
2018-07-29T10:39:38.831Z,292.50
2018-07-29T10:40:38.922Z,281.25
2018-07-29T10:41:38.792Z,281.25
2018-07-29T10:42:38.806Z,286.88
2018-07-29T10:43:38.763Z,286.88
2018-07-29T10:44:38.825Z,292.50
2018-07-29T10:45:38.736Z,303.75
2018-07-29T10:46:38.836Z,320.63
2018-07-29T10:47:38.708Z,326.25
2018-07-29T10:48:38.749Z,320.63
2018-07-29T10:49:38.680Z,303.75
2018-07-29T10:50:38.763Z,286.88
2018-07-29T10:51:38.653Z,275.63
2018-07-29T10:52:38.678Z,258.75
2018-07-29T10:53:38.631Z,236.25
2018-07-29T10:54:38.695Z,219.38
2018-07-29T10:55:38.603Z,213.75
2018-07-29T10:56:38.602Z,219.38
2018-07-29T10:57:38.574Z,219.38
2018-07-29T10:58:38.651Z,219.38
2018-07-29T10:59:38.546Z,219.38
2018-07-29T11:00:38.633Z,225.00
2018-07-29T11:01:38.519Z,225.00
2018-07-29T11:02:38.544Z,230.63
2018-07-29T11:03:38.494Z,241.88
2018-07-29T11:04:38.555Z,253.13
2018-07-29T11:05:38.476Z,264.38
2018-07-29T11:06:38.469Z,264.38
2018-07-29T11:07:38.435Z,281.25
2018-07-29T11:08:38.481Z,286.88
2018-07-29T11:09:38.407Z,303.75
2018-07-29T11:10:38.509Z,309.38
2018-07-29T11:11:38.380Z,309.38
2018-07-29T11:12:38.416Z,303.75
2018-07-29T11:13:38.393Z,298.13
2018-07-29T11:14:38.421Z,281.25
2018-07-29T11:15:38.325Z,264.38
2018-07-29T11:16:38.334Z,253.13
2018-07-29T11:17:38.296Z,247.50
2018-07-29T11:18:38.349Z,253.13
2018-07-29T11:19:38.273Z,253.13
2018-07-29T11:20:38.362Z,258.75
2018-07-29T11:21:38.244Z,258.75
2018-07-29T11:22:38.273Z,258.75
2018-07-29T11:23:38.217Z,258.75
2018-07-29T11:24:38.286Z,247.50
2018-07-29T11:25:38.187Z,236.25
2018-07-29T11:26:38.200Z,225.00
2018-07-29T11:27:38.159Z,213.75
2018-07-29T11:28:38.215Z,208.13
2018-07-29T11:29:38.136Z,208.13
2018-07-29T11:30:38.260Z,196.88
2018-07-29T11:31:38.106Z,202.50
2018-07-29T11:32:38.140Z,202.50
2018-07-29T11:33:38.079Z,191.25
2018-07-29T11:34:38.155Z,196.88
2018-07-29T11:35:38.050Z,196.88
2018-07-29T11:36:38.068Z,196.88
2018-07-29T11:37:38.025Z,202.50
2018-07-29T11:38:38.081Z,202.50
2018-07-29T11:39:37.999Z,202.50
2018-07-29T11:40:38.095Z,202.50
2018-07-29T11:41:38.011Z,202.50
2018-07-29T11:42:38.006Z,219.38
2018-07-29T11:43:37.947Z,202.50
2018-07-29T11:44:38.022Z,196.88
2018-07-29T11:45:37.911Z,196.88
2018-07-29T11:46:37.932Z,196.88
2018-07-29T11:47:37.884Z,196.88
2018-07-29T11:48:37.947Z,196.88
2018-07-29T11:49:37.937Z,202.50
2018-07-29T11:50:37.859Z,202.50
2018-07-29T11:51:37.830Z,202.50
2018-07-29T11:52:37.873Z,213.75
2018-07-29T11:53:37.800Z,219.38
2018-07-29T11:54:37.887Z,225.00
2018-07-29T11:55:37.775Z,225.00
2018-07-29T11:56:37.800Z,225.00
2018-07-29T11:57:37.758Z,230.63
2018-07-29T11:58:37.813Z,230.63
2018-07-29T11:59:37.718Z,236.25
2018-07-29T12:00:37.729Z,236.25
2018-07-29T12:01:37.689Z,230.63
2018-07-29T12:02:37.744Z,230.63
2018-07-29T12:03:37.664Z,225.00
2018-07-29T12:04:37.760Z,219.38
2018-07-29T12:05:37.636Z,213.75
2018-07-29T12:06:37.694Z,213.75
2018-07-29T12:07:37.609Z,208.13
2018-07-29T12:08:37.681Z,208.13
2018-07-29T12:09:37.583Z,202.50
2018-07-29T12:10:37.593Z,202.50
2018-07-29T12:11:37.551Z,202.50
2018-07-29T12:12:37.607Z,202.50
2018-07-29T12:13:37.523Z,202.50
2018-07-29T12:14:37.622Z,202.50
2018-07-29T12:15:37.498Z,196.88
2018-07-29T12:16:37.532Z,196.88
2018-07-29T12:17:37.473Z,196.88
2018-07-29T12:18:37.545Z,202.50
2018-07-29T12:19:37.443Z,202.50
2018-07-29T12:20:37.458Z,208.13
2018-07-29T12:21:37.414Z,208.13
2018-07-29T12:22:37.472Z,202.50
2018-07-29T12:23:37.388Z,208.13
2018-07-29T12:24:37.487Z,213.75
2018-07-29T12:25:37.365Z,213.75
2018-07-29T12:26:37.399Z,219.38
2018-07-29T12:27:37.335Z,236.25
2018-07-29T12:28:37.412Z,247.50
2018-07-29T12:29:37.306Z,258.75
2018-07-29T12:30:37.325Z,264.38
2018-07-29T12:31:37.282Z,264.38
2018-07-29T12:32:37.339Z,270.00
2018-07-29T12:33:37.252Z,270.00
2018-07-29T12:34:37.359Z,275.63
2018-07-29T12:35:37.226Z,281.25
2018-07-29T12:36:37.261Z,292.50
2018-07-29T12:37:37.193Z,298.13
2018-07-29T12:38:37.279Z,303.75
2018-07-29T12:39:37.175Z,303.75
2018-07-29T12:40:37.196Z,309.38
2018-07-29T12:41:37.147Z,315.00
2018-07-29T12:42:37.208Z,320.63
2018-07-29T12:43:37.119Z,326.25
2018-07-29T12:44:37.230Z,309.38
2018-07-29T12:45:37.095Z,309.38
2018-07-29T12:46:37.133Z,292.50
2018-07-29T12:47:37.068Z,281.25
2018-07-29T12:48:37.148Z,275.63